createdAt,value
2023-05-07T04:00:45.444Z,99.90
2023-05-07T04:03:17.402Z,99.90
2023-05-07T04:05:49.076Z,99.90
2023-05-07T04:08:20.742Z,99.90
2023-05-07T04:10:55.952Z,99.90
2023-05-07T04:13:27.606Z,99.90
2023-05-07T04:16:01.996Z,99.90
2023-05-07T04:18:33.663Z,99.90
2023-05-07T04:21:05.365Z,99.90
2023-05-07T04:23:37.000Z,99.90
2023-05-07T04:26:08.764Z,99.90
2023-05-07T04:28:40.408Z,99.90
2023-05-07T04:31:13.424Z,99.90
2023-05-07T04:33:45.050Z,99.90
2023-05-07T04:36:16.726Z,99.90
2023-05-07T04:38:48.365Z,99.90
2023-05-07T04:41:20.173Z,99.90
2023-05-07T04:43:51.840Z,99.90
2023-05-07T04:46:24.956Z,99.90
2023-05-07T04:48:56.662Z,99.90
2023-05-07T04:51:28.290Z,99.90
2023-05-07T04:53:59.953Z,99.90
2023-05-07T04:56:31.604Z,99.90
2023-05-07T04:59:03.273Z,99.90
2023-05-07T05:01:36.303Z,99.90
2023-05-07T05:04:08.068Z,99.90
2023-05-07T05:06:39.805Z,99.90
2023-05-07T05:09:11.537Z,99.90
2023-05-07T05:11:43.214Z,99.90
2023-05-07T05:14:14.870Z,99.90
2023-05-07T05:16:47.941Z,99.90
2023-05-07T05:19:19.603Z,99.90
2023-05-07T05:21:51.248Z,99.90
2023-05-07T05:24:22.906Z,99.90
2023-05-07T05:26:54.649Z,99.90
2023-05-07T05:29:26.288Z,99.90
2023-05-07T05:31:59.566Z,99.90
2023-05-07T05:34:31.375Z,99.90
2023-05-07T05:37:03.048Z,99.90
2023-05-07T05:39:34.715Z,99.90
2023-05-07T05:42:06.558Z,99.90
2023-05-07T05:44:38.207Z,99.90
2023-05-07T05:47:11.210Z,99.90
2023-05-07T05:49:42.896Z,99.90
2023-05-07T05:52:14.535Z,99.90
2023-05-07T05:54:46.209Z,99.90
2023-05-07T05:57:18.041Z,99.90
2023-05-07T05:59:49.728Z,99.90
2023-05-07T06:02:22.886Z,99.90
2023-05-07T06:04:54.708Z,99.90
2023-05-07T06:07:26.380Z,99.90
2023-05-07T06:09:58.044Z,99.90
2023-05-07T06:12:29.697Z,99.90
2023-05-07T06:15:01.344Z,99.90
2023-05-07T06:17:34.710Z,99.90
2023-05-07T06:20:07.901Z,99.90
2023-05-07T06:22:39.626Z,99.90
2023-05-07T06:25:11.286Z,99.90
2023-05-07T06:27:42.946Z,99.90
2023-05-07T06:30:14.738Z,99.90
2023-05-07T06:32:47.824Z,99.90
2023-05-07T06:35:19.604Z,99.90
2023-05-07T06:37:51.269Z,99.90
2023-05-07T06:40:22.915Z,99.90
2023-05-07T06:42:54.548Z,99.90
2023-05-07T06:45:26.276Z,99.90
2023-05-07T06:47:59.341Z,99.90
2023-05-07T06:50:31.013Z,99.90
2023-05-07T06:53:02.649Z,99.90
2023-05-07T06:55:34.305Z,99.90
2023-05-07T06:58:05.946Z,99.90
2023-05-07T07:00:37.619Z,99.90
2023-05-07T07:03:10.740Z,99.90
2023-05-07T07:05:42.612Z,99.90
2023-05-07T07:08:14.267Z,99.90
2023-05-07T07:10:45.923Z,99.90
2023-05-07T07:13:17.592Z,99.90
2023-05-07T07:15:49.301Z,99.90
2023-05-07T07:18:22.366Z,95.20
2023-05-07T07:20:54.100Z,95.10
2023-05-07T07:23:25.801Z,93.90
2023-05-07T07:25:57.448Z,91.70
2023-05-07T07:28:29.134Z,94.60
2023-05-07T07:31:00.867Z,95.50
2023-05-07T07:33:33.874Z,95.20
2023-05-07T07:36:06.576Z,96.40
2023-05-07T07:38:38.209Z,97.70
2023-05-07T07:41:09.897Z,97.20
2023-05-07T07:43:41.551Z,98.20
2023-05-07T07:46:13.202Z,99.90
2023-05-07T07:48:46.188Z,99.90
2023-05-07T07:51:17.853Z,99.30
2023-05-07T07:53:49.489Z,94.30
2023-05-07T07:56:21.147Z,92.90
2023-05-07T07:58:52.794Z,89.40
2023-05-07T08:01:24.522Z,90.00
2023-05-07T08:03:57.779Z,94.20
2023-05-07T08:06:29.515Z,93.10
2023-05-07T08:09:01.169Z,99.90
2023-05-07T08:11:32.831Z,99.90
2023-05-07T08:14:04.494Z,99.90
2023-05-07T08:16:36.207Z,99.90
2023-05-07T08:19:09.231Z,99.90
2023-05-07T08:21:41.118Z,99.90
2023-05-07T08:24:12.811Z,99.90
2023-05-07T08:26:44.495Z,99.90
2023-05-07T08:29:16.163Z,99.90
2023-05-07T08:31:47.828Z,99.90
2023-05-07T08:34:21.877Z,99.90
2023-05-07T08:36:53.538Z,99.90
2023-05-07T08:39:25.232Z,99.90
2023-05-07T08:41:56.932Z,99.90
2023-05-07T08:44:28.597Z,99.90
2023-05-07T08:47:00.509Z,97.80
2023-05-07T08:49:33.683Z,99.30
2023-05-07T08:52:06.197Z,97.10
2023-05-07T08:54:39.243Z,92.90
2023-05-07T08:57:10.916Z,91.50
2023-05-07T08:59:42.576Z,83.50
2023-05-07T09:02:14.272Z,81.90
2023-05-07T09:04:47.360Z,89.30
2023-05-07T09:07:19.035Z,84.50
2023-05-07T09:09:50.686Z,70.30
2023-05-07T09:12:22.436Z,68.50
2023-05-07T09:14:54.102Z,67.70
2023-05-07T09:17:25.818Z,71.00
2023-05-07T09:20:02.590Z,84.10
2023-05-07T09:22:34.281Z,86.30
2023-05-07T09:25:07.184Z,88.20
2023-05-07T09:27:38.894Z,72.60
2023-05-07T09:30:11.605Z,70.00
2023-05-07T09:32:43.335Z,52.20
2023-05-07T09:35:19.416Z,36.50
2023-05-07T09:37:51.160Z,36.80
2023-05-07T09:40:22.887Z,21.90
2023-05-07T09:42:54.567Z,26.10
2023-05-07T09:45:26.252Z,28.10
2023-05-07T09:47:58.943Z,14.50
2023-05-07T09:50:39.425Z,15.50
2023-05-07T09:53:11.101Z,11.40
2023-05-07T09:55:42.998Z,13.00
2023-05-07T09:58:14.703Z,8.70
2023-05-07T10:00:46.524Z,8.00
2023-05-07T10:03:18.282Z,6.80
2023-05-07T10:05:51.899Z,7.40
2023-05-07T10:08:23.541Z,21.70
2023-05-07T10:10:55.207Z,17.10
2023-05-07T10:13:26.879Z,24.10
2023-05-07T10:15:58.764Z,22.60
2023-05-07T10:18:30.951Z,13.70
2023-05-07T10:21:07.997Z,15.00
2023-05-07T10:26:11.766Z,20.40
2023-05-07T10:28:45.955Z,19.60
2023-05-07T10:31:32.629Z,17.20
2023-05-07T10:34:07.792Z,12.20
2023-05-07T10:36:40.648Z,12.00
2023-05-07T10:39:12.199Z,7.80
2023-05-07T10:41:43.713Z,7.00
2023-05-07T10:44:25.507Z,7.80
2023-05-07T10:47:04.658Z,9.00
2023-05-07T10:49:36.708Z,6.60
2023-05-07T10:52:16.577Z,5.80
2023-05-07T10:54:48.110Z,8.20
2023-05-07T10:57:35.162Z,10.80
2023-05-07T11:00:42.309Z,14.60
2023-05-07T11:03:14.028Z,15.00
2023-05-07T11:05:45.794Z,15.20
2023-05-07T11:08:18.864Z,13.70
2023-05-07T11:10:54.344Z,15.30
2023-05-07T11:13:44.874Z,19.60
2023-05-07T11:16:19.657Z,20.80
2023-05-07T11:18:52.206Z,24.20
2023-05-07T11:21:34.279Z,22.50
2023-05-07T11:24:07.756Z,21.50
2023-05-07T11:26:43.758Z,15.90
2023-05-07T11:29:16.959Z,11.20
2023-05-07T11:31:52.339Z,12.40
2023-05-07T11:34:24.528Z,12.30
2023-05-07T11:36:56.248Z,16.60
2023-05-07T11:39:30.575Z,18.00
2023-05-07T11:42:02.312Z,15.60
2023-05-07T11:44:42.678Z,15.90
2023-05-07T11:47:18.386Z,15.70
2023-05-07T11:49:51.578Z,13.30
2023-05-07T11:52:24.260Z,11.70
2023-05-07T11:54:57.855Z,12.40
2023-05-07T11:57:29.519Z,12.20
2023-05-07T12:00:01.479Z,12.20
2023-05-07T12:02:33.379Z,9.70
2023-05-07T12:05:05.722Z,10.50
2023-05-07T12:10:12.341Z,16.40
2023-05-07T12:12:46.867Z,15.30
2023-05-07T12:15:18.555Z,14.50
2023-05-07T12:17:50.261Z,16.10
2023-05-07T12:20:22.006Z,16.90
2023-05-07T12:22:53.653Z,17.30
2023-05-07T12:25:26.958Z,16.70
2023-05-07T12:27:58.589Z,17.70
2023-05-07T12:30:30.266Z,20.60
2023-05-07T12:33:01.961Z,22.20
2023-05-07T12:35:36.904Z,18.10
2023-05-07T12:38:09.120Z,18.50
2023-05-07T12:40:42.981Z,15.80
2023-05-07T12:43:17.797Z,16.30
2023-05-07T12:45:50.116Z,16.10
2023-05-07T12:48:22.049Z,15.10
2023-05-07T12:50:54.214Z,17.40
2023-05-07T12:53:27.197Z,18.90
2023-05-07T12:58:34.354Z,23.10
2023-05-07T13:01:06.593Z,28.10
2023-05-07T13:03:39.150Z,30.40
2023-05-07T13:06:11.483Z,42.40
2023-05-07T13:08:43.410Z,44.60
2023-05-07T13:11:16.425Z,54.00
2023-05-07T13:13:49.157Z,50.00
2023-05-07T13:16:22.341Z,65.70
2023-05-07T13:18:54.364Z,87.50
2023-05-07T13:21:26.309Z,89.60
2023-05-07T13:23:57.958Z,97.50
2023-05-07T13:26:31.577Z,99.80
2023-05-07T13:29:03.256Z,96.90
2023-05-07T13:31:35.024Z,99.90
2023-05-07T13:34:06.739Z,99.90
2023-05-07T13:36:38.412Z,99.90
2023-05-07T13:39:10.182Z,99.90
2023-05-07T13:41:43.290Z,99.90
2023-05-07T13:44:15.011Z,99.90
2023-05-07T13:46:46.723Z,99.50
2023-05-07T13:49:18.423Z,99.00
2023-05-07T13:51:50.102Z,99.40
2023-05-07T13:54:21.856Z,94.90
2023-05-07T13:56:54.870Z,96.70
2023-05-07T13:59:26.544Z,99.50
2023-05-07T14:01:58.207Z,92.60
2023-05-07T14:04:31.086Z,95.60
2023-05-07T14:07:02.730Z,92.30
2023-05-07T14:09:34.450Z,93.70
2023-05-07T14:12:08.064Z,92.80
2023-05-07T14:14:39.724Z,90.20
2023-05-07T14:17:11.562Z,88.50
2023-05-07T14:19:43.347Z,90.50
2023-05-07T14:22:15.042Z,91.90
2023-05-07T14:24:48.558Z,93.40
2023-05-07T14:27:26.203Z,96.10
2023-05-07T14:29:57.846Z,97.20
2023-05-07T14:32:29.607Z,98.70
2023-05-07T14:35:01.310Z,99.90
2023-05-07T14:37:32.984Z,99.90
2023-05-07T14:40:05.512Z,99.90
2023-05-07T14:42:38.578Z,99.90
2023-05-07T14:45:11.568Z,99.90
2023-05-07T14:47:43.434Z,99.90
2023-05-07T14:50:15.138Z,99.90
2023-05-07T14:52:46.831Z,99.90
2023-05-07T14:55:18.510Z,99.90
2023-05-07T14:57:51.498Z,99.90
2023-05-07T15:00:23.224Z,99.90
2023-05-07T15:02:54.987Z,99.90
2023-05-07T15:05:26.723Z,99.90
2023-05-07T15:07:58.395Z,99.90
2023-05-07T15:10:30.095Z,99.90
2023-05-07T15:13:03.208Z,99.90
2023-05-07T15:15:34.976Z,99.90
2023-05-07T15:18:06.747Z,99.90
2023-05-07T15:20:38.493Z,99.90
2023-05-07T15:23:10.259Z,99.90
2023-05-07T15:25:42.065Z,99.90
2023-05-07T15:28:15.095Z,99.90
2023-05-07T15:30:46.747Z,99.90
2023-05-07T15:33:18.413Z,99.90
2023-05-07T15:35:50.057Z,99.90
2023-05-07T15:38:21.722Z,99.90
2023-05-07T15:40:53.864Z,99.90
2023-05-07T15:43:26.916Z,99.90
2023-05-07T15:45:58.605Z,99.90
2023-05-07T15:48:30.359Z,99.90
2023-05-07T15:51:02.038Z,99.90
2023-05-07T15:53:33.694Z,99.90
2023-05-07T15:56:05.702Z,99.90
2023-05-07T15:58:38.824Z,99.90
2023-05-07T16:01:10.555Z,99.90
2023-05-07T16:03:42.485Z,99.90
2023-05-07T16:06:14.260Z,99.90
2023-05-07T16:08:45.956Z,99.90
2023-05-07T16:11:17.632Z,99.90
2023-05-07T16:13:50.884Z,99.90
2023-05-07T16:16:22.612Z,99.90
2023-05-07T16:18:54.316Z,99.90
2023-05-07T16:21:25.995Z,99.90
2023-05-07T16:23:57.810Z,99.90
2023-05-07T16:26:29.451Z,99.90
2023-05-07T16:29:04.550Z,99.90
2023-05-07T16:31:36.221Z,99.90
2023-05-07T16:34:07.921Z,99.90
2023-05-07T16:36:39.595Z,99.90
2023-05-07T16:39:11.247Z,99.90
2023-05-07T16:41:42.927Z,99.90
2023-05-07T16:44:16.139Z,99.90
2023-05-07T16:46:47.833Z,99.90
2023-05-07T16:49:19.543Z,99.90
2023-05-07T16:51:51.192Z,99.90
2023-05-07T16:54:22.867Z,99.90
2023-05-07T16:56:54.533Z,99.90
2023-05-07T16:59:27.520Z,99.90
2023-05-07T17:01:59.500Z,99.90
2023-05-07T17:04:31.237Z,99.90
2023-05-07T17:07:02.890Z,99.90
2023-05-07T17:09:34.545Z,99.90
2023-05-07T17:12:06.281Z,99.90
2023-05-07T17:14:39.249Z,99.90
2023-05-07T17:17:10.947Z,99.90
2023-05-07T17:19:42.577Z,99.90
2023-05-07T17:22:14.241Z,99.90
2023-05-07T17:24:45.944Z,99.90
2023-05-07T17:27:17.593Z,99.90
2023-05-07T17:29:50.582Z,99.90
2023-05-07T17:32:22.262Z,99.90
2023-05-07T17:34:53.903Z,99.90
2023-05-07T17:37:25.956Z,99.90
2023-05-07T17:39:57.603Z,99.90
2023-05-07T17:42:29.572Z,99.90
2023-05-07T17:45:02.662Z,99.90
2023-05-07T17:47:34.349Z,99.90
2023-05-07T17:50:07.110Z,99.90
2023-05-07T17:52:38.821Z,99.90
2023-05-07T17:55:10.864Z,99.90
2023-05-07T17:57:42.721Z,99.90
2023-05-07T18:00:16.393Z,99.90
2023-05-07T18:02:48.131Z,99.90
2023-05-07T18:05:20.021Z,99.90
2023-05-07T18:07:51.745Z,99.90
2023-05-07T18:10:23.402Z,99.90
2023-05-07T18:12:55.281Z,99.90
2023-05-07T18:15:28.337Z,99.90
2023-05-07T18:18:00.064Z,99.90
2023-05-07T18:20:31.790Z,99.90
2023-05-07T18:23:03.442Z,99.90
2023-05-07T18:25:35.208Z,99.90
2023-05-07T18:28:06.970Z,99.90
2023-05-07T18:30:40.009Z,99.90
2023-05-07T18:33:13.273Z,99.90
2023-05-07T18:35:45.022Z,99.90
2023-05-07T18:38:16.651Z,99.90
2023-05-07T18:40:48.306Z,99.90
2023-05-07T18:43:19.937Z,99.90
2023-05-07T18:45:52.969Z,99.90
2023-05-07T18:48:24.632Z,99.90
2023-05-07T18:50:56.297Z,99.90
2023-05-07T18:53:27.949Z,99.90
2023-05-07T18:55:59.606Z,99.90
2023-05-07T18:58:31.256Z,99.90
2023-05-07T19:01:04.271Z,99.90
2023-05-07T19:03:36.016Z,99.90
2023-05-07T19:06:07.708Z,99.90
2023-05-07T19:08:39.372Z,99.90
2023-05-07T19:11:11.016Z,99.90
2023-05-07T19:13:42.682Z,99.90
2023-05-07T19:16:15.724Z,99.90
2023-05-07T19:18:47.765Z,99.90
2023-05-07T19:21:19.443Z,99.90
2023-05-07T19:23:51.126Z,99.90
2023-05-07T19:26:23.001Z,99.90
2023-05-07T19:29:11.654Z,99.90
2023-05-07T19:31:45.190Z,99.90
2023-05-07T19:34:16.895Z,99.90
2023-05-07T19:36:48.546Z,99.90
2023-05-07T19:39:20.498Z,99.90
2023-05-07T19:41:52.281Z,99.90
2023-05-07T19:44:23.922Z,99.90
2023-05-07T19:46:58.352Z,99.90
2023-05-07T19:49:29.985Z,99.90
2023-05-07T19:52:01.629Z,99.90
2023-05-07T19:54:33.437Z,99.90
2023-05-07T19:57:05.082Z,99.90
2023-05-07T19:59:36.752Z,99.90
2023-05-07T20:02:09.709Z,99.90
2023-05-07T20:04:41.378Z,99.90
2023-05-07T20:07:13.000Z,99.90
2023-05-07T20:09:44.642Z,99.90
2023-05-07T20:12:16.278Z,99.90
2023-05-07T20:14:47.951Z,99.90
2023-05-07T20:17:20.945Z,99.90
2023-05-07T20:19:53.844Z,99.90
2023-05-07T20:22:25.495Z,99.90
2023-05-07T20:24:57.132Z,99.90
2023-05-07T20:27:28.771Z,99.90
2023-05-07T20:30:00.402Z,99.90
2023-05-07T20:32:33.472Z,99.90
2023-05-07T20:35:05.761Z,99.90
2023-05-07T20:37:38.470Z,99.90
2023-05-07T20:40:10.708Z,99.90
2023-05-07T20:42:42.632Z,99.90
2023-05-07T20:45:14.301Z,99.90
2023-05-07T20:47:47.354Z,99.90
2023-05-07T20:50:19.032Z,99.90
2023-05-07T20:52:50.659Z,99.90
2023-05-07T20:55:22.496Z,99.90
2023-05-07T20:57:54.123Z,99.90
2023-05-07T21:00:25.869Z,99.90
2023-05-07T21:02:58.872Z,99.90
2023-05-07T21:05:31.247Z,99.90
2023-05-07T21:08:02.924Z,99.90
2023-05-07T21:10:34.574Z,99.90
2023-05-07T21:13:06.255Z,99.90
2023-05-07T21:15:37.967Z,99.90
2023-05-07T21:18:11.052Z,99.90
2023-05-07T21:20:42.748Z,99.90
2023-05-07T21:23:14.384Z,99.90
2023-05-07T21:25:45.998Z,99.90
2023-05-07T21:28:17.644Z,99.90
2023-05-07T21:30:49.290Z,99.90
2023-05-07T21:33:22.322Z,99.90
2023-05-07T21:35:53.982Z,99.90
2023-05-07T21:38:25.737Z,99.90
2023-05-07T21:40:58.018Z,99.90
2023-05-07T21:43:29.674Z,99.90
2023-05-07T21:46:01.362Z,99.90
2023-05-07T21:48:34.428Z,99.90
2023-05-07T21:51:06.612Z,99.90
2023-05-07T21:53:38.253Z,99.90
2023-05-07T21:56:09.907Z,99.90
2023-05-07T21:58:41.549Z,99.90
